Time;durP1;ratioP1;P1;durP2;ratioP2;P2;SDS_P1;SDS_P2;PMS_P1;PMS_P2;Temp;Humidity;BMP_temperature;BMP_pressure;BME280_temperature;BME280_humidity;BME280_pressure;Samples;Min_cycle;Max_cycle;Signal;HPM_P1;HPM_P2
2022/12/15 00:40:07;;;;;;;;;;;;;;;;;;5053209;28;20059;-76
2022/12/15 00:42:33;;;;;;;;;;;;;;;;;;5053969;28;19925;-76
2022/12/15 00:45:00;;;;;;;;;;;;;;;;;;5052793;28;19925;-76
2022/12/15 00:47:26;;;;;;;;;;;;;;;;;;5053368;28;19924;-77
2022/12/15 01:20:14;;;;;;;;;;;;;;;;;;5034641;28;19948;-77
2022/12/15 01:22:40;;;;;;;;;;;;;;;;;;5034932;28;20288;-77
2022/12/15 01:25:09;;;;;;;;;;;;;;;;;;5053465;28;19928;-77
2022/12/15 01:27:35;;;;;;;;;;;;;;;;;;5053249;28;19999;-77
2022/12/15 01:30:02;;;;;;;;;;;;;;;;;;5053188;28;19976;-77
2022/12/15 01:32:28;;;;;;;;;;;;;;;;;;5052988;28;20015;-77
2022/12/15 01:34:55;;;;;;;;;;;;;;;;;;5054556;28;19932;-77
2022/12/15 01:37:21;;;;;;;;;;;;;;;;;;5058647;28;19931;-78
2022/12/15 01:42:33;;;;;;;;;;;;;;;;;;5062805;28;19932;-77
2022/12/15 01:45:14;;;;;;;;;;;;;;;;;;5063765;28;20008;-77
2022/12/15 01:47:41;;;;;;;;;;;;;;;;;;5056210;28;20339;-77
2022/12/15 01:50:08;;;;;;;;;;;;;;;;;;5057180;28;19935;-77
2022/12/15 01:52:35;;;;;;;;;;;;;;;;;;5056192;28;19964;-76
2022/12/15 01:55:02;;;;;;;;;;;;;;;;;;5055979;28;19968;-76
2022/12/15 01:57:29;;;;;;;;;;;;;;;;;;5055966;28;19928;-77
2022/12/15 01:59:59;;;;;;;;;;;;;;;;;;5056369;28;20015;-77
2022/12/15 02:02:28;;;;;;;;;;;;;;;;;;5056279;28;19925;-76
2022/12/15 02:04:56;;;;;;;;;;;;;;;;;;5056432;28;19936;-76
2022/12/15 02:07:23;;;;;;;;;;;;;;;;;;5056466;28;19925;-77
2022/12/15 02:09:50;;;;;;;;;;;;;;;;;;5057069;28;19928;-77
2022/12/15 02:12:21;;;;;;;;;;;;;;;;;;5056465;28;19975;-77
2022/12/15 02:14:56;;;;;;;;;;;;;;;;;;5057071;28;19932;-77
2022/12/15 02:17:30;;;;;;;;;;;;;;;;;;5056909;28;19932;-77
2022/12/15 02:20:06;;;;;;;;;;;;;;;;;;5037477;28;19983;-77
2022/12/15 02:22:40;;;;;;;;;;;;;;;;;;5037443;28;19925;-77
2022/12/15 02:25:17;;;;;;;;;;;;;;;;;;5055299;28;19935;-77
2022/12/15 02:27:48;;;;;;;;;;;;;;;;;;5056944;28;19925;-77
2022/12/15 02:30:18;;;;;;;;;;;;;;;;;;5057104;28;20038;-78
2022/12/15 02:32:49;;;;;;;;;;;;;;;;;;5056787;28;20447;-77
2022/12/15 02:35:21;;;;;;;;;;;;;;;;;;5056903;28;20019;-77
2022/12/15 02:37:48;;;;;;;;;;;;;;;;;;5056737;28;19925;-77
2022/12/15 02:40:14;;;;;;;;;;;;;;;;;;5056772;28;19933;-78
2022/12/15 02:42:43;;;;;;;;;;;;;;;;;;5056967;28;19935;-77
2022/12/15 02:45:12;;;;;;;;;;;;;;;;;;5056867;28;19931;-77
2022/12/15 02:47:44;;;;;;;;;;;;;;;;;;5036790;28;20015;-77
2022/12/15 02:50:32;;;;;;;;;;;;;;;;;;5036858;28;19929;-77
2022/12/15 02:53:02;;;;;;;;;;;;;;;;;;5036333;28;19963;-77
2022/12/15 02:55:32;;;;;;;;;;;;;;;;;;5080662;22;20312;-50
2022/12/15 02:58:00;;;;;;;;;;;;;;;;;;5051320;28;19932;-52
2022/12/15 03:00:27;;;;;;;;;;;;;;;;;;5051375;28;20454;-51
2022/12/15 03:02:55;;;;;;;;;;;;;;;;;;5050963;28;19982;-51
2022/12/15 03:05:24;;;;;;;;;;;;;;;;;;5050744;28;19979;-49
2022/12/15 03:07:51;;;;;;;;;;;;;;;;;;5051202;28;20451;-53
2022/12/15 03:10:18;;;;;;;;;;;;;;;;;;5050849;28;19962;-50
2022/12/15 03:12:49;;;;;;;;;;;;;;;;;;5051007;28;20019;-50
2022/12/15 03:15:15;;;;;;;;;;;;;;;;;;5050625;28;20403;-51
2022/12/15 03:17:42;;;;;;;;;;;;;;;;;;5050906;28;20286;-51
2022/12/15 03:20:10;;;;;;;;;;;;;;;;;;5051036;28;20405;-50
2022/12/15 03:22:37;;;;;;;;;;;;;;;;;;5051093;28;19925;-55
2022/12/15 03:25:04;;;;;;;;;;;;;;;;;;5050816;28;19979;-49
2022/12/15 03:27:31;;;;;;;;;;;;;;;;;;5051072;28;20348;-50
2022/12/15 03:29:57;;;;;;;;;;;;;;;;;;5050883;28;19932;-50
2022/12/15 03:32:24;;;;;;;;;;;;;;;;;;5050726;28;19933;-52
2022/12/15 03:34:51;;;;;;;;;;;;;;;;;;5050960;28;19941;-50
2022/12/15 03:37:18;;;;;;;;;;;;;;;;;;5051008;28;19978;-53
2022/12/15 03:39:45;;;;;;;;;;;;;;;;;;5050547;28;19934;-54
2022/12/15 03:42:11;;;;;;;;;;;;;;;;;;5050223;28;19960;-49
2022/12/15 03:44:38;;;;;;;;;;;;;;;;;;5049981;28;19929;-49
2022/12/15 03:47:05;;;;;;;;;;;;;;;;;;5049625;28;19944;-53
2022/12/15 03:49:32;;;;;;;;;;;;;;;;;;5049510;28;19931;-51
2022/12/15 03:51:58;;;;;;;;;;;;;;;;;;5050252;28;19928;-51
2022/12/15 03:54:26;;;;;;;;;;;;;;;;;;5050355;28;19924;-50
2022/12/15 03:56:53;;;;;;;;;;;;;;;;;;5050189;28;19925;-50
2022/12/15 03:59:19;;;;;;;;;;;;;;;;;;5049698;28;19925;-50
2022/12/15 04:01:47;;;;;;;;;;;;;;;;;;5050107;28;19925;-53
2022/12/15 04:04:14;;;;;;;;;;;;;;;;;;5050027;28;20397;-51
2022/12/15 04:06:40;;;;;;;;;;;;;;;;;;5050276;28;20082;-54
2022/12/15 04:09:07;;;;;;;;;;;;;;;;;;5050199;28;20302;-49
2022/12/15 04:11:35;;;;;;;;;;;;;;;;;;5049641;28;20398;-50
2022/12/15 04:14:01;;;;;;;;;;;;;;;;;;5049603;28;19928;-53
2022/12/15 04:16:28;;;;;;;;;;;;;;;;;;5049403;28;19924;-50
2022/12/15 04:21:35;;;;;;;;;;;;;;;;;;5049118;28;20030;-50
2022/12/15 05:32:33;;;;;;;;;;;;;;;;;;5048271;28;20039;-51
2022/12/15 05:35:00;;;;;;;;;;;;;;;;;;5048834;28;20394;-54
2022/12/15 05:37:26;;;;;;;;;;;;;;;;;;5048406;28;20004;-50
2022/12/15 05:39:53;;;;;;;;;;;;;;;;;;5048284;28;19964;-49
2022/12/15 05:42:19;;;;;;;;;;;;;;;;;;5048518;28;20519;-54
2022/12/15 05:44:46;;;;;;;;;;;;;;;;;;5048758;28;19925;-51
2022/12/15 05:47:12;;;;;;;;;;;;;;;;;;5048513;28;19932;-49
2022/12/15 05:49:41;;;;;;;;;;;;;;;;;;5048289;28;19998;-49
2022/12/15 05:52:08;;;;;;;;;;;;;;;;;;5047599;28;19924;-49
2022/12/15 05:54:34;;;;;;;;;;;;;;;;;;5049611;28;20376;-51
2022/12/15 05:57:01;;;;;;;;;;;;;;;;;;5048269;28;20020;-52
2022/12/15 05:59:27;;;;;;;;;;;;;;;;;;5048504;28;19933;-47
2022/12/15 06:01:54;;;;;;;;;;;;;;;;;;5048282;28;20551;-47
2022/12/15 06:04:20;;;;;;;;;;;;;;;;;;5048348;28;19925;-51
2022/12/15 06:06:51;;;;;;;;;;;;;;;;;;5047754;28;19929;-50
2022/12/15 06:09:18;;;;;;;;;;;;;;;;;;5047975;28;19933;-50
2022/12/15 06:11:44;;;;;;;;;;;;;;;;;;5047893;28;20133;-50
2022/12/15 06:14:11;;;;;;;;;;;;;;;;;;5047656;28;20370;-51
2022/12/15 06:16:38;;;;;;;;;;;;;;;;;;5047974;28;19925;-52
2022/12/15 06:19:04;;;;;;;;;;;;;;;;;;5048275;28;20360;-48
2022/12/15 06:21:34;;;;;;;;;;;;;;;;;;5047724;28;20025;-51
2022/12/15 06:24:02;;;;;;;;;;;;;;;;;;5047905;28;19933;-50
2022/12/15 06:26:29;;;;;;;;;;;;;;;;;;5049692;28;19925;-48
2022/12/15 06:28:57;;;;;;;;;;;;;;;;;;5050957;28;19932;-48
2022/12/15 06:31:25;;;;;;;;;;;;;;;;;;5052241;28;19994;-53
2022/12/15 06:33:51;;;;;;;;;;;;;;;;;;5051635;28;19983;-50
2022/12/15 06:36:18;;;;;;;;;;;;;;;;;;5051373;28;19937;-50
2022/12/15 06:38:45;;;;;;;;;;;;;;;;;;5051346;28;19952;-49
2022/12/15 06:41:14;;;;;;;;;;;;;;;;;;5051388;28;19933;-51
2022/12/15 06:43:41;;;;;;;;;;;;;;;;;;5050456;28;19932;-51
2022/12/15 06:46:08;;;;;;;;;;;;;;;;;;5051099;28;19951;-52
2022/12/15 06:48:35;;;;;;;;;;;;;;;;;;5050991;28;20379;-52
2022/12/15 06:51:02;;;;;;;;;;;;;;;;;;5051325;28;20414;-49
2022/12/15 06:53:29;;;;;;;;;;;;;;;;;;5051421;28;19925;-55
2022/12/15 06:55:58;;;;;;;;;;;;;;;;;;5051123;28;19924;-49
2022/12/15 06:58:26;;;;;;;;;;;;;;;;;;5051256;28;19925;-50
2022/12/15 07:00:53;;;;;;;;;;;;;;;;;;5051053;28;19987;-49
2022/12/15 07:03:20;;;;;;;;;;;;;;;;;;5050786;28;19929;-48
2022/12/15 07:05:46;;;;;;;;;;;;;;;;;;5050892;28;19925;-49
2022/12/15 07:08:14;;;;;;;;;;;;;;;;;;5051118;28;20200;-50
2022/12/15 07:10:42;;;;;;;;;;;;;;;;;;5051357;28;19979;-50
2022/12/15 07:13:09;;;;;;;;;;;;;;;;;;5051311;28;19986;-52
2022/12/15 07:15:39;;;;;;;;;;;;;;;;;;5051256;28;19932;-47
2022/12/15 07:18:06;;;;;;;;;;;;;;;;;;5051290;28;19924;-54
2022/12/15 07:20:34;;;;;;;;;;;;;;;;;;5050678;28;19933;-50
2022/12/15 07:23:06;;;;;;;;;;;;;;;;;;5051054;28;19925;-53
2022/12/15 07:25:33;;;;;;;;;;;;;;;;;;5051025;28;20335;-52
2022/12/15 07:28:00;;;;;;;;;;;;;;;;;;5050894;28;19933;-48
2022/12/15 07:30:27;;;;;;;;;;;;;;;;;;5051069;28;19982;-50
2022/12/15 07:32:55;;;;;;;;;;;;;;;;;;5050719;28;19983;-51
2022/12/15 07:35:21;;;;;;;;;;;;;;;;;;5050466;28;19932;-52
2022/12/15 07:37:48;;;;;;;;;;;;;;;;;;5049407;28;19984;-52
2022/12/15 07:40:14;;;;;;;;;;;;;;;;;;5050093;28;20367;-48
2022/12/15 07:42:41;;;;;;;;;;;;;;;;;;5050237;28;19951;-50
2022/12/15 07:45:08;;;;;;;;;;;;;;;;;;5055947;28;19978;-52
2022/12/15 07:47:35;;;;;;;;;;;;;;;;;;5053063;28;19978;-52
2022/12/15 07:50:03;;;;;;;;;;;;;;;;;;5052821;28;19931;-48
2022/12/15 07:52:30;;;;;;;;;;;;;;;;;;5053824;28;19925;-50
2022/12/15 07:54:57;;;;;;;;;;;;;;;;;;5072177;28;19924;-51
2022/12/15 07:57:23;;;;;;;;;;;;;;;;;;5060652;28;19936;-48
2022/12/15 07:59:50;;;;;;;;;;;;;;;;;;5057304;28;19970;-49
2022/12/15 08:02:17;;;;;;;;;;;;;;;;;;5073858;28;20373;-49
2022/12/15 08:04:43;;;;;;;;;;;;;;;;;;5052049;28;19925;-49
2022/12/15 08:07:11;;;;;;;;;;;;;;;;;;5053504;28;20650;-52
2022/12/15 08:09:38;;;;;;;;;;;;;;;;;;5068008;28;19924;-52
2022/12/15 08:12:05;;;;;;;;;;;;;;;;;;5057913;28;19925;-47
2022/12/15 08:14:32;;;;;;;;;;;;;;;;;;5054011;28;19925;-54
2022/12/15 08:16:58;;;;;;;;;;;;;;;;;;5053697;28;20397;-52
2022/12/15 08:19:25;;;;;;;;;;;;;;;;;;5053455;28;20333;-47
2022/12/15 08:21:51;;;;;;;;;;;;;;;;;;5053036;28;19933;-50
2022/12/15 08:24:19;;;;;;;;;;;;;;;;;;5053403;28;20338;-48
2022/12/15 08:26:46;;;;;;;;;;;;;;;;;;5053058;28;19925;-50
2022/12/15 08:29:13;;;;;;;;;;;;;;;;;;5053764;28;19939;-47
2022/12/15 08:31:40;;;;;;;;;;;;;;;;;;5048690;28;19940;-53
2022/12/15 08:34:07;;;;;;;;;;;;;;;;;;5045883;28;20301;-48
2022/12/15 08:36:34;;;;;;;;;;;;;;;;;;5033108;28;19932;-49
2022/12/15 08:39:01;;;;;;;;;;;;;;;;;;5034195;28;19979;-50
2022/12/15 08:41:30;;;;;;;;;;;;;;;;;;5033055;28;20337;-52
2022/12/15 08:43:57;;;;;;;;;;;;;;;;;;5059441;28;19970;-49
2022/12/15 08:46:25;;;;;;;;;;;;;;;;;;5071281;28;19932;-50
2022/12/15 08:48:52;;;;;;;;;;;;;;;;;;5059544;28;19931;-48
2022/12/15 08:51:19;;;;;;;;;;;;;;;;;;5055153;28;19944;-51
2022/12/15 08:53:46;;;;;;;;;;;;;;;;;;5071194;28;20373;-61
2022/12/15 08:56:14;;;;;;;;;;;;;;;;;;5072621;28;19977;-65
2022/12/15 08:58:42;;;;;;;;;;;;;;;;;;5072830;28;19925;-49
2022/12/15 09:01:10;;;;;;;;;;;;;;;;;;5071568;28;19977;-53
2022/12/15 09:03:37;;;;;;;;;;;;;;;;;;5052467;28;20325;-47
2022/12/15 09:06:04;;;;;;;;;;;;;;;;;;5051617;28;19982;-56
2022/12/15 09:08:31;;;;;;;;;;;;;;;;;;5053227;28;20381;-61
2022/12/15 09:10:58;;;;;;;;;;;;;;;;;;5052371;28;19971;-59
2022/12/15 09:13:24;;;;;;;;;;;;;;;;;;5070482;28;19929;-52
2022/12/15 09:15:57;;;;;;;;;;;;;;;;;;5066953;28;19928;-56
2022/12/15 09:18:23;;;;;;;;;;;;;;;;;;5052449;28;19967;-56
2022/12/15 09:20:50;;;;;;;;;;;;;;;;;;5052696;28;19975;-54
2022/12/15 09:23:16;;;;;;;;;;;;;;;;;;5052769;28;19924;-50
2022/12/15 09:25:43;;;;;;;;;;;;;;;;;;5052937;28;19925;-68
2022/12/15 09:28:10;;;;;;;;;;;;;;;;;;5052135;28;19925;-52
2022/12/15 09:30:36;;;;;;;;;;;;;;;;;;5055721;28;19931;-51
2022/12/15 09:33:04;;;;;;;;;;;;;;;;;;5059480;28;19925;-49
2022/12/15 09:35:31;;;;;;;;;;;;;;;;;;5051678;28;20328;-50
2022/12/15 09:37:57;;;;;;;;;;;;;;;;;;5052555;28;19970;-47
2022/12/15 09:40:24;;;;;;;;;;;;;;;;;;5052478;28;19925;-47
2022/12/15 09:42:52;;;;;;;;;;;;;;;;;;5051998;28;19955;-48
2022/12/15 09:45:21;;;;;;;;;;;;;;;;;;5052877;28;19932;-49
2022/12/15 09:47:51;;;;;;;;;;;;;;;;;;5032769;28;19925;-48
2022/12/15 09:50:23;;;;;;;;;;;;;;;;;;5063714;28;19932;-49
2022/12/15 09:52:51;;;;;;;;;;;;;;;;;;5052082;28;19924;-53
2022/12/15 09:55:20;;;;;;;;;;;;;;;;;;5068034;28;19924;-53
2022/12/15 09:57:50;;;;;;;;;;;;;;;;;;5052884;28;19924;-51
2022/12/15 10:00:20;;;;;;;;;;;;;;;;;;5063499;28;19951;-51
2022/12/15 10:03:02;;;;;;;;;;;;;;;;;;5055950;28;20011;-55
2022/12/15 10:05:35;;;;;;;;;;;;;;;;;;5053770;28;20325;-51
2022/12/15 10:08:02;;;;;;;;;;;;;;;;;;5058065;28;19994;-53
2022/12/15 10:10:32;;;;;;;;;;;;;;;;;;5055972;28;20382;-52
2022/12/15 10:13:03;;;;;;;;;;;;;;;;;;5055102;28;19955;-52
2022/12/15 10:15:35;;;;;;;;;;;;;;;;;;5056221;28;19925;-52
2022/12/15 10:18:04;;;;;;;;;;;;;;;;;;5069777;28;20373;-54
2022/12/15 10:20:31;;;;;;;;;;;;;;;;;;5060455;28;19929;-51
2022/12/15 10:23:02;;;;;;;;;;;;;;;;;;5076088;28;19924;-53
2022/12/15 10:25:29;;;;;;;;;;;;;;;;;;5075214;28;19979;-51
2022/12/15 10:28:04;;;;;;;;;;;;;;;;;;5072694;28;19924;-51
2022/12/15 10:30:31;;;;;;;;;;;;;;;;;;5075871;28;19924;-53
2022/12/15 10:33:01;;;;;;;;;;;;;;;;;;5074720;28;19924;-51
2022/12/15 10:35:29;;;;;;;;;;;;;;;;;;5055898;28;19925;-51
2022/12/15 10:37:57;;;;;;;;;;;;;;;;;;5055803;28;19924;-50
2022/12/15 10:40:39;;;;;;;;;;;;;;;;;;5055801;28;19979;-51
2022/12/15 10:43:12;;;;;;;;;;;;;;;;;;5055784;28;20008;-51
2022/12/15 10:45:39;;;;;;;;;;;;;;;;;;5056120;28;20032;-51
2022/12/15 10:48:07;;;;;;;;;;;;;;;;;;5061644;28;19924;-55
2022/12/15 10:50:35;;;;;;;;;;;;;;;;;;5076140;28;19925;-56
2022/12/15 10:53:07;;;;;;;;;;;;;;;;;;5070074;28;20024;-51
2022/12/15 10:55:36;;;;;;;;;;;;;;;;;;5055708;28;19928;-49
2022/12/15 10:58:04;;;;;;;;;;;;;;;;;;5060081;28;19925;-49
2022/12/15 11:00:33;;;;;;;;;;;;;;;;;;5075519;28;19924;-52
2022/12/15 11:03:00;;;;;;;;;;;;;;;;;;5074590;28;20029;-52
2022/12/15 11:05:26;;;;;;;;;;;;;;;;;;5075347;28;20027;-53
2022/12/15 11:07:54;;;;;;;;;;;;;;;;;;5069659;28;19925;-52
2022/12/15 11:10:21;;;;;;;;;;;;;;;;;;5061434;28;19928;-54
2022/12/15 11:12:53;;;;;;;;;;;;;;;;;;5054259;28;19978;-54
2022/12/15 11:15:37;;;;;;;;;;;;;;;;;;5054847;28;19925;-52
2022/12/15 11:18:10;;;;;;;;;;;;;;;;;;5046104;28;19925;-54
2022/12/15 11:20:38;;;;;;;;;;;;;;;;;;5056711;28;20313;-52
2022/12/15 11:23:09;;;;;;;;;;;;;;;;;;5074694;28;19974;-50
2022/12/15 11:25:38;;;;;;;;;;;;;;;;;;5073918;28;20281;-54
2022/12/15 11:28:08;;;;;;;;;;;;;;;;;;5054634;28;19932;-54
2022/12/15 11:30:40;;;;;;;;;;;;;;;;;;5054618;28;20023;-50
2022/12/15 11:33:07;;;;;;;;;;;;;;;;;;5054802;28;19994;-52
2022/12/15 11:35:41;;;;;;;;;;;;;;;;;;5055569;28;20286;-52
2022/12/15 11:38:13;;;;;;;;;;;;;;;;;;5054587;28;19932;-54
2022/12/15 11:40:40;;;;;;;;;;;;;;;;;;5073377;28;19924;-54
2022/12/15 11:43:14;;;;;;;;;;;;;;;;;;5060329;28;19924;-56
2022/12/15 11:45:49;;;;;;;;;;;;;;;;;;5072094;28;19929;-54
2022/12/15 11:48:16;;;;;;;;;;;;;;;;;;5074366;28;19933;-53
2022/12/15 11:50:51;;;;;;;;;;;;;;;;;;5069925;28;19932;-53
2022/12/15 11:53:22;;;;;;;;;;;;;;;;;;5062516;28;20309;-57
2022/12/15 11:55:53;;;;;;;;;;;;;;;;;;5053163;28;19932;-54
2022/12/15 11:58:44;;;;;;;;;;;;;;;;;;5062281;28;20329;-55
2022/12/15 12:01:18;;;;;;;;;;;;;;;;;;4974970;28;19926;-53
2022/12/15 12:03:49;;;;;;;;;;;;;;;;;;5066972;28;19936;-53
2022/12/15 12:06:18;;;;;;;;;;;;;;;;;;5049780;28;19936;-53
2022/12/15 12:08:58;;;;;;;;;;;;;;;;;;5049602;28;20287;-52
2022/12/15 12:11:27;;;;;;;;;;;;;;;;;;5051649;28;19991;-51
2022/12/15 12:14:05;;;;;;;;;;;;;;;;;;5053614;28;20369;-54
2022/12/15 12:16:39;;;;;;;;;;;;;;;;;;5053631;28;19925;-53
2022/12/15 12:19:09;;;;;;;;;;;;;;;;;;5053428;28;20019;-52
2022/12/15 12:21:37;;;;;;;;;;;;;;;;;;5054246;28;20377;-52
2022/12/15 12:24:05;;;;;;;;;;;;;;;;;;5053127;28;19963;-55
2022/12/15 12:26:35;;;;;;;;;;;;;;;;;;5051668;28;20246;-53
2022/12/15 12:29:04;;;;;;;;;;;;;;;;;;5054923;28;20233;-51
2022/12/15 12:31:37;;;;;;;;;;;;;;;;;;5056537;28;20011;-54
2022/12/15 12:34:08;;;;;;;;;;;;;;;;;;5055576;28;19978;-55
2022/12/15 12:36:35;;;;;;;;;;;;;;;;;;5073562;28;20397;-53
2022/12/15 12:39:02;;;;;;;;;;;;;;;;;;5073187;28;19924;-52
2022/12/15 12:41:34;;;;;;;;;;;;;;;;;;5073059;28;19932;-53
2022/12/15 12:44:04;;;;;;;;;;;;;;;;;;5065151;28;20398;-55
2022/12/15 12:46:32;;;;;;;;;;;;;;;;;;5042001;28;19925;-53
2022/12/15 12:49:05;;;;;;;;;;;;;;;;;;5053044;28;19948;-54
2022/12/15 12:51:32;;;;;;;;;;;;;;;;;;5061593;28;20382;-66
2022/12/15 12:53:59;;;;;;;;;;;;;;;;;;5052394;28;19925;-66
2022/12/15 12:56:41;;;;;;;;;;;;;;;;;;5072500;28;19928;-51
2022/12/15 12:59:22;;;;;;;;;;;;;;;;;;5073490;28;20412;-62
2022/12/15 13:01:49;;;;;;;;;;;;;;;;;;5038414;28;20378;-55
2022/12/15 13:04:38;;;;;;;;;;;;;;;;;;5065577;28;20382;-52
2022/12/15 13:07:05;;;;;;;;;;;;;;;;;;5050382;28;20015;-55
2022/12/15 13:09:39;;;;;;;;;;;;;;;;;;5072485;28;19931;-53
2022/12/15 13:12:26;;;;;;;;;;;;;;;;;;5045636;28;19951;-55
2022/12/15 13:14:54;;;;;;;;;;;;;;;;;;5052481;28;19974;-56
2022/12/15 13:17:27;;;;;;;;;;;;;;;;;;5052271;28;19982;-54
2022/12/15 13:20:27;;;;;;;;;;;;;;;;;;5069333;28;19924;-55
2022/12/15 13:22:56;;;;;;;;;;;;;;;;;;5051638;28;20004;-54
2022/12/15 13:25:27;;;;;;;;;;;;;;;;;;5057146;28;20382;-55
2022/12/15 13:27:56;;;;;;;;;;;;;;;;;;5051890;28;19971;-56
2022/12/15 13:30:23;;;;;;;;;;;;;;;;;;5052809;28;20370;-55
2022/12/15 13:32:51;;;;;;;;;;;;;;;;;;5052004;28;19928;-53
2022/12/15 13:35:22;;;;;;;;;;;;;;;;;;5055148;28;19967;-53
2022/12/15 13:37:50;;;;;;;;;;;;;;;;;;5051826;28;20348;-52
2022/12/15 13:40:33;;;;;;;;;;;;;;;;;;5037852;28;19979;-54
2022/12/15 13:43:07;;;;;;;;;;;;;;;;;;5051756;28;19982;-53
2022/12/15 13:45:46;;;;;;;;;;;;;;;;;;5052744;28;20535;-55
2022/12/15 13:48:34;;;;;;;;;;;;;;;;;;5055529;28;20293;-66
2022/12/15 13:51:12;;;;;;;;;;;;;;;;;;5049769;28;20357;-53
2022/12/15 13:53:41;;;;;;;;;;;;;;;;;;5061378;28;20047;-63
2022/12/15 13:56:19;;;;;;;;;;;;;;;;;;5054255;28;19983;-53
2022/12/15 13:58:48;;;;;;;;;;;;;;;;;;5072445;28;20360;-52
2022/12/15 14:01:19;;;;;;;;;;;;;;;;;;5054053;28;19936;-55
2022/12/15 14:03:56;;;;;;;;;;;;;;;;;;5052349;28;19944;-56
2022/12/15 14:06:23;;;;;;;;;;;;;;;;;;5053307;28;20291;-53
2022/12/15 14:08:50;;;;;;;;;;;;;;;;;;5065756;28;19929;-55
2022/12/15 14:11:22;;;;;;;;;;;;;;;;;;5052764;28;19925;-52
2022/12/15 14:13:49;;;;;;;;;;;;;;;;;;5068611;28;19924;-56
2022/12/15 14:16:17;;;;;;;;;;;;;;;;;;5055529;28;19928;-56
2022/12/15 14:18:45;;;;;;;;;;;;;;;;;;5051922;28;20266;-57
2022/12/15 14:21:19;;;;;;;;;;;;;;;;;;5051228;28;20474;-54
2022/12/15 14:23:45;;;;;;;;;;;;;;;;;;5050327;28;20301;-52
2022/12/15 14:26:13;;;;;;;;;;;;;;;;;;5062212;28;20275;-53
2022/12/15 14:28:42;;;;;;;;;;;;;;;;;;5051513;28;19925;-48
2022/12/15 14:34:14;;;;;;;;;;;;;;;;;;5046495;28;19923;-52
2022/12/15 14:36:41;;;;;;;;;;;;;;;;;;5051614;28;20278;-52
2022/12/15 14:39:12;;;;;;;;;;;;;;;;;;5051545;28;19929;-50
2022/12/15 14:41:43;;;;;;;;;;;;;;;;;;5049397;28;19971;-54
2022/12/15 14:44:17;;;;;;;;;;;;;;;;;;5062804;28;20370;-52
2022/12/15 14:46:46;;;;;;;;;;;;;;;;;;5054430;28;19925;-52
2022/12/15 14:49:17;;;;;;;;;;;;;;;;;;5053171;28;19924;-51
2022/12/15 14:51:46;;;;;;;;;;;;;;;;;;5050997;28;19925;-49
2022/12/15 14:54:27;;;;;;;;;;;;;;;;;;5052900;28;19925;-51
2022/12/15 14:56:56;;;;;;;;;;;;;;;;;;5053352;28;19929;-54
2022/12/15 14:59:24;;;;;;;;;;;;;;;;;;5053003;28;19924;-51
2022/12/15 15:01:52;;;;;;;;;;;;;;;;;;5053673;28;19932;-51
2022/12/15 15:04:24;;;;;;;;;;;;;;;;;;5052855;28;19971;-49
2022/12/15 15:06:54;;;;;;;;;;;;;;;;;;5068434;28;20313;-53
2022/12/15 15:09:24;;;;;;;;;;;;;;;;;;5059219;28;19971;-52
2022/12/15 15:11:52;;;;;;;;;;;;;;;;;;5035749;28;20565;-54
2022/12/15 15:14:21;;;;;;;;;;;;;;;;;;5036404;28;19929;-52
2022/12/15 15:16:59;;;;;;;;;;;;;;;;;;5052664;28;19970;-54
2022/12/15 15:19:26;;;;;;;;;;;;;;;;;;5051953;28;19925;-54
2022/12/15 15:21:52;;;;;;;;;;;;;;;;;;5052786;28;19971;-54
2022/12/15 15:24:23;;;;;;;;;;;;;;;;;;5072551;28;20354;-49
2022/12/15 15:26:50;;;;;;;;;;;;;;;;;;5055914;28;20271;-51
2022/12/15 15:29:33;;;;;;;;;;;;;;;;;;5051390;28;20162;-55
2022/12/15 15:32:06;;;;;;;;;;;;;;;;;;5043636;28;19925;-50
2022/12/15 15:34:33;;;;;;;;;;;;;;;;;;5032286;28;19929;-52
2022/12/15 15:37:01;;;;;;;;;;;;;;;;;;5035448;28;20460;-53
2022/12/15 15:39:28;;;;;;;;;;;;;;;;;;5038731;28;19925;-50
2022/12/15 15:41:54;;;;;;;;;;;;;;;;;;5051871;28;19925;-66
2022/12/15 15:44:21;;;;;;;;;;;;;;;;;;5052634;28;19925;-65
2022/12/15 15:46:48;;;;;;;;;;;;;;;;;;5052579;28;20386;-66
2022/12/15 15:49:17;;;;;;;;;;;;;;;;;;5050993;28;20457;-65
2022/12/15 15:51:44;;;;;;;;;;;;;;;;;;5070036;28;20274;-51
2022/12/15 15:54:13;;;;;;;;;;;;;;;;;;5052857;28;19925;-52
2022/12/15 15:56:43;;;;;;;;;;;;;;;;;;5051680;28;19954;-51
2022/12/15 15:59:11;;;;;;;;;;;;;;;;;;5052793;28;19932;-52
2022/12/15 16:01:37;;;;;;;;;;;;;;;;;;5053058;28;19931;-52
2022/12/15 16:04:05;;;;;;;;;;;;;;;;;;5064605;28;20019;-53
2022/12/15 16:06:33;;;;;;;;;;;;;;;;;;5050849;28;20000;-51
2022/12/15 16:08:59;;;;;;;;;;;;;;;;;;5068482;28;19928;-54
2022/12/15 16:11:28;;;;;;;;;;;;;;;;;;5070466;28;19924;-53
2022/12/15 16:13:55;;;;;;;;;;;;;;;;;;5070689;28;19931;-52
2022/12/15 16:16:23;;;;;;;;;;;;;;;;;;5071274;28;20019;-61
2022/12/15 16:18:49;;;;;;;;;;;;;;;;;;5051452;28;19929;-51
2022/12/15 16:21:17;;;;;;;;;;;;;;;;;;5050688;28;20189;-53
2022/12/15 16:23:47;;;;;;;;;;;;;;;;;;5052549;28;19925;-49
2022/12/15 16:26:14;;;;;;;;;;;;;;;;;;5031713;28;20362;-53
2022/12/15 16:28:41;;;;;;;;;;;;;;;;;;5066202;28;19925;-52
2022/12/15 16:31:09;;;;;;;;;;;;;;;;;;5056338;28;19940;-49
2022/12/15 16:33:36;;;;;;;;;;;;;;;;;;5055653;28;19932;-49
2022/12/15 16:36:06;;;;;;;;;;;;;;;;;;5051122;28;19925;-52
2022/12/15 16:38:34;;;;;;;;;;;;;;;;;;5050860;28;19924;-53
2022/12/15 16:41:05;;;;;;;;;;;;;;;;;;5032222;28;19929;-52
2022/12/15 16:43:31;;;;;;;;;;;;;;;;;;5050121;28;20349;-54
2022/12/15 16:45:58;;;;;;;;;;;;;;;;;;5049229;28;20413;-55
2022/12/15 16:48:25;;;;;;;;;;;;;;;;;;5057354;28;20271;-54
2022/12/15 16:50:52;;;;;;;;;;;;;;;;;;5057585;28;20319;-52
2022/12/15 16:53:21;;;;;;;;;;;;;;;;;;5070806;28;19979;-51
2022/12/15 16:55:49;;;;;;;;;;;;;;;;;;5060434;28;19947;-52
2022/12/15 16:58:17;;;;;;;;;;;;;;;;;;5053291;28;19979;-55
2022/12/15 17:00:44;;;;;;;;;;;;;;;;;;5053926;28;19951;-56
2022/12/15 17:03:12;;;;;;;;;;;;;;;;;;5070886;28;20377;-53
2022/12/15 17:05:39;;;;;;;;;;;;;;;;;;5052462;28;19929;-52
2022/12/15 17:08:08;;;;;;;;;;;;;;;;;;5057692;28;19924;-52
2022/12/15 17:10:35;;;;;;;;;;;;;;;;;;5050413;28;20294;-54
2022/12/15 17:13:03;;;;;;;;;;;;;;;;;;5067108;28;20318;-55
2022/12/15 17:18:05;;;;;;;;;;;;;;;;;;5043601;22;20476;-74
2022/12/15 17:20:32;;;;;;;;;;;;;;;;;;5029784;28;19929;-74
2022/12/15 17:23:00;;;;;;;;;;;;;;;;;;5029758;28;19925;-74
2022/12/15 17:25:30;;;;;;;;;;;;;;;;;;5030340;28;19925;-73
2022/12/15 17:27:59;;;;;;;;;;;;;;;;;;5009667;28;19929;-74
2022/12/15 17:30:25;;;;;;;;;;;;;;;;;;5001608;28;19926;-73
2022/12/15 17:32:52;;;;;;;;;;;;;;;;;;4992798;28;20014;-73
2022/12/15 17:35:20;;;;;;;;;;;;;;;;;;5009910;28;19932;-73
2022/12/15 17:37:47;;;;;;;;;;;;;;;;;;5007020;28;20079;-78
2022/12/15 17:40:14;;;;;;;;;;;;;;;;;;5010282;28;19929;-72
2022/12/15 17:42:41;;;;;;;;;;;;;;;;;;5009902;28;19925;-74
2022/12/15 17:45:13;;;;;;;;;;;;;;;;;;5011133;28;20588;-73
2022/12/15 17:47:39;;;;;;;;;;;;;;;;;;5011719;28;19936;-72
2022/12/15 17:50:06;;;;;;;;;;;;;;;;;;5011535;28;19925;-74
2022/12/15 17:52:34;;;;;;;;;;;;;;;;;;5011945;28;19926;-74
2022/12/15 17:55:00;;;;;;;;;;;;;;;;;;5003271;28;19929;-72
2022/12/15 17:57:30;;;;;;;;;;;;;;;;;;4992764;28;19965;-72
2022/12/15 17:59:56;;;;;;;;;;;;;;;;;;4992707;28;19926;-72
2022/12/15 18:02:23;;;;;;;;;;;;;;;;;;4992459;28;20392;-72
2022/12/15 18:04:49;;;;;;;;;;;;;;;;;;5004361;28;19933;-73
2022/12/15 18:07:17;;;;;;;;;;;;;;;;;;5013909;28;20016;-72
2022/12/15 18:09:45;;;;;;;;;;;;;;;;;;5012526;28;20032;-72
2022/12/15 18:12:17;;;;;;;;;;;;;;;;;;5012564;28;19925;-72
2022/12/15 18:14:43;;;;;;;;;;;;;;;;;;5013016;28;19988;-73
2022/12/15 18:17:09;;;;;;;;;;;;;;;;;;5012475;28;19926;-73
2022/12/15 18:19:36;;;;;;;;;;;;;;;;;;5012564;28;19930;-71
2022/12/15 18:22:02;;;;;;;;;;;;;;;;;;5012844;28;19929;-72
2022/12/15 18:24:29;;;;;;;;;;;;;;;;;;5016333;28;19933;-73
2022/12/15 18:26:57;;;;;;;;;;;;;;;;;;5016200;28;19926;-73
2022/12/15 18:29:23;;;;;;;;;;;;;;;;;;5015712;28;19935;-74
2022/12/15 18:31:50;;;;;;;;;;;;;;;;;;5015326;28;20020;-72
2022/12/15 18:34:17;;;;;;;;;;;;;;;;;;5015765;28;19925;-74
2022/12/15 18:36:44;;;;;;;;;;;;;;;;;;5015397;28;19965;-74
2022/12/15 18:39:16;;;;;;;;;;;;;;;;;;5015492;28;20012;-74
2022/12/15 18:41:42;;;;;;;;;;;;;;;;;;5015578;28;19977;-72
2022/12/15 18:44:13;;;;;;;;;;;;;;;;;;5016254;28;19957;-75
2022/12/15 18:46:40;;;;;;;;;;;;;;;;;;5016092;28;19930;-74
2022/12/15 18:49:09;;;;;;;;;;;;;;;;;;5015558;28;19925;-74
2022/12/15 18:51:36;;;;;;;;;;;;;;;;;;5015242;28;19926;-74
2022/12/15 18:54:02;;;;;;;;;;;;;;;;;;5015810;28;20588;-75
2022/12/15 18:56:28;;;;;;;;;;;;;;;;;;5016533;28;20380;-75
2022/12/15 18:58:55;;;;;;;;;;;;;;;;;;5016596;28;20485;-75
2022/12/15 19:01:23;;;;;;;;;;;;;;;;;;5015711;28;19932;-75
2022/12/15 19:03:50;;;;;;;;;;;;;;;;;;5012359;28;20397;-75
2022/12/15 19:06:20;;;;;;;;;;;;;;;;;;4996542;28;19953;-75
2022/12/15 19:08:46;;;;;;;;;;;;;;;;;;4995857;28;19926;-75
2022/12/15 19:11:16;;;;;;;;;;;;;;;;;;4997528;28;19930;-74
2022/12/15 19:13:43;;;;;;;;;;;;;;;;;;4996652;28;19941;-76
2022/12/15 19:16:14;;;;;;;;;;;;;;;;;;4997043;28;19980;-75
2022/12/15 19:24:15;;;;;;;;;;;;;;;;;;4995070;28;19972;-76
2022/12/15 19:26:41;;;;;;;;;;;;;;;;;;4995056;28;20300;-76
2022/12/15 19:29:16;;;;;;;;;;;;;;;;;;4995272;28;19926;-75
2022/12/15 19:31:42;;;;;;;;;;;;;;;;;;4994431;28;19926;-75